Bouldin Island, California
Current Conditions -  °F | °C
As of 7:58 AM on Wednesday 22 Oct 2014 (Local Time) from KSUU Reporting Station
Clear Clear  
Wind Chill: 47°   Ceiling: Unl
Heat Index: 47°   Visibility: 10mi
Dew Point: 46°   Wind: 2mph
Humidity: 96%   Direction: 260°W
Pressure: 30.02"   Gusts: NA
Location:  38.1457°N, 121.624°W
Report Text: KSUU 221458Z AUTO 26002KT 10SM CLR 08/08 A3002 RMK AO2 SLP173 T00820076 50000 $
Loading
Personal Weather Stations






























Interactive Weather Map
Tropical Storm Tracking
New forecast layout! Learn more

10-Day Weather Forecast

Advertisements
Track Severe Weather on mobile